Huvudsida
METAR-TAF:

METAR-TAF

Flygplatser :

Stords flygplats. Sørstokken

Stords, Norge

latitud: 59-48N, longitud: 005-21E, höjd: 49 m

Aktuellt väderrapport

Denna rapport gjordes för 7 timmar och 50 minuter sedan, klockan 12:50 UTC
Vind 8 kt från nordväst, varierande mellan väst/nordväst och nord
Temperatur 16°C
Fuktighet 51%
Tryck 1031 hPa
Sikt 10 km eller mer
Inga moln under 1 500 m eller inga cumulonimbus

METAR: ENSO 291250Z 32008KT 290V350 CAVOK 16/06 Q1031

Tid: 22:40 (20:40 UTC)

Väderprognos

Denna rapport gjordes för 12 timmar och 40 minuter sedan, klockan 08:00 UTC
Prognos gäller från 29 kl. 07 UTC till 29 kl. 13 UTC
Vind 7 kt från väst/nordväst
Sikt 10 km eller mer
Inga moln under 1 500 m eller inga cumulonimbus

TAF: ENSO 290800Z 2907/2913 30007KT CAVOK

Aktuella väderrapporter och prognoser från 4000 flygplatser (METAR- och TAF-rapporter).

De tillgängliga stationerna syns som gula och röda prickar på kartan.

För musen över prickarna för att se namnen på stationerna.

Klicka sedan för att få väderrapporter och prognoser.

För att ändra kartan: Klicka på de gröna knapparna med ett svart kors på för att zooma in; den gröna knappen med ett streck på för att zooma ut; eller på de gröna pilarna för angränsande kartor.


METAR-TAF: